• Join FlightAware (Why Join?)
  • Login
  • US Flag 
05:01PM EDT


 

Airport Tracker/Info


-or-


 

Live Flight TrackerFlight Track Log ✈ JIA2335 ✈ 02-May-2013 ✈ KPHL - KDAY

Flight Track Log - Related Links

Times and Time Zones

All times are in EDT time to prevent confusion due to time zone crossing. See the JIA2335 flight status page for this flight to view local times or setup timezone preferences in your user account.

Time Position Orientation Groundspeed Altitude Reporting Facility
EDT Latitude Longitude Course Direction KTS MPH feet Rate Location/Type
09:34AM 39.8833 -75.2000 270° West 148 170 1,300  Level Philadelphia TRACON
09:37AM 39.9000 -75.5722 270° West  Level FlightAware Approximate
09:37AM 39.9603 -75.1825 10° North 150 173 7,400  Level New York Center
09:38AM 39.9132 -75.6876 258° West  Level FlightAware Approximate
09:38AM 39.9544 -75.2797 266° West 219 252 9,700  Level New York Center
09:39AM 39.9000 -75.8045 270° West  Level FlightAware Approximate
09:39AM 39.9461 -75.3875 264° West 273 314 10,000  Level New York Center
09:40AM 39.9000 -75.9232 270° West  Level FlightAware Approximate
09:40AM 39.9350 -75.5058 263° West 323 372 10,000  Level New York Center
09:41AM 39.9192 -75.6428 261° West 354 407 10,700 1,140 Climbing New York Center
09:42AM 39.9142 -75.7617 267° West 369 425 12,300 1,860 Climbing New York Center
09:43AM 39.9117 -75.9131 269° West 374 430 14,500 1,980 Climbing New York Center
09:44AM 39.9106 -76.0347 269° West 380 437 16,300 1,680 Climbing New York Center
09:45AM 39.9058 -76.1833 268° West 385 443 18,000 1,200 Climbing New York Center
09:46AM 39.9125 -76.3111 274° West 390 449 18,800 1,140 Climbing New York Center
09:47AM 39.9161 -76.4519 272° West 390 449 20,300 1,440 Climbing New York Center
09:48AM 39.9236 -76.5989 274° West 402 463 21,700 1,140 Climbing New York Center
09:49AM 39.9289 -76.7456 273° West 407 468 22,600 960 Climbing New York Center
09:50AM 39.9336 -76.8950 272° West 407 468 23,600 960 Climbing New York Center
09:51AM 39.9403 -77.0444 273° West 407 468 24,600 1,020 Climbing New York Center
09:52AM 39.9450 -77.1939 272° West 407 468 25,700 900 Climbing New York Center
09:53AM 39.9556 -77.4575 273° West 403 464 27,000 720 Climbing Cleveland Center
09:54AM 39.9636 -77.6117 274° West 415 478 27,700 480 Climbing Cleveland Center
09:55AM 39.9678 -77.7686 272° West 422 486 28,000 120 Climbing Cleveland Center
09:56AM 39.9717 -77.9283 272° West 432 497 28,000  Level Cleveland Center
09:57AM 39.9775 -78.0933 273° West 447 514 28,000  Level Cleveland Center
09:58AM 39.9831 -78.2611 273° West 458 527 28,000  Level Cleveland Center
09:59AM 39.9844 -78.4317 271° West 470 541 28,000  Level Cleveland Center
10:00AM 39.9936 -78.5994 274° West 470 541 28,000  Level Cleveland Center
10:01AM 40.0025 -78.7644 274° West 470 541 28,000  Level Cleveland Center
10:02AM 40.0136 -78.9322 275° West 470 541 28,000  Level Cleveland Center
10:03AM 40.0217 -79.0783 274° West 460 529 28,000  Level Cleveland Center
10:04AM 40.0303 -79.2464 274° West 460 529 28,000  Level Cleveland Center
10:05AM 40.0403 -79.4144 274° West 460 529 28,000  Level Cleveland Center
10:06AM 40.0481 -79.5825 274° West 460 529 28,000  Level Cleveland Center
10:07AM 40.0558 -79.7478 274° West 460 529 28,000  Level Cleveland Center
10:08AM 40.0653 -79.9158 274° West 460 529 28,000  Level Cleveland Center
10:09AM 40.0683 -80.0975 271° West 453 521 28,000  Level Cleveland Center
10:10AM 40.0731 -80.2656 272° West 459 528 28,000  Level Cleveland Center
10:11AM 40.0858 -80.4122 277° West 459 528 28,000  Level Cleveland Center
10:12AM 40.0922 -80.5967 273° West 459 528 28,000  Level Cleveland Center
10:14AM 40.1003 -80.9025 272° West 463 533 28,000  Level Indianapolis Center
10:15AM 40.1078 -81.1003 273° West 463 533 28,000  Level Indianapolis Center
10:16AM 40.1136 -81.2686 273° West 460 529 28,000  Level Indianapolis Center
10:17AM 40.1183 -81.4372 272° West 461 531 28,000  Level Indianapolis Center
10:18AM 40.1242 -81.6081 273° West 465 535 28,000 -300 Level Indianapolis Center
10:19AM 40.1292 -81.7753 272° West 459 528 27,500 -1,020 Descending Indianapolis Center
10:20AM 40.1347 -81.9622 272° West 460 529 25,900 -1,500 Descending Indianapolis Center
10:22AM 40.1397 -82.1294 272° West 457 526 24,500 -1,380 Descending Indianapolis Center
10:23AM 40.1442 -82.2925 272° West 449 517 23,100 -1,440 Descending Indianapolis Center
10:24AM 40.1486 -82.4525 272° West 440 506 21,600 -1,440 Descending Indianapolis Center
10:25AM 40.1511 -82.6100 271° West 433 498 20,200 -1,380 Descending Indianapolis Center
10:26AM 40.1606 -82.7642 275° West 424 488 18,800 -1,260 Descending Indianapolis Center
10:27AM 40.1678 -82.9147 274° West 413 475 17,700 -1,380 Descending Indianapolis Center
10:28AM 40.1772 -83.0850 274° West 402 463 16,000 -1,500 Descending Indianapolis Center
10:29AM 40.1839 -83.2242 274° West 388 447 14,600 -1,440 Descending Indianapolis Center
10:30AM 40.1903 -83.3631 273° West 382 440 13,100 -1,380 Descending Indianapolis Center
10:31AM 40.1958 -83.4997 273° West 378 435 11,800 -1,380 Descending Indianapolis Center
10:31AM 40.1964 -83.5767 271° West 366 421 11,100 -1,260 Descending Indianapolis Center
10:32AM 40.1844 -83.6292 253° West 364 419 10,500 -1,140 Descending Indianapolis Center
10:32AM 40.1708 -83.6964 255° West 365 420 10,100 -540 Descending Indianapolis Center
10:33AM 40.1528 -83.7792 254° West 367 422 10,000 -120 Descending Indianapolis Center
10:33AM 40.1428 -83.8211 253° West 365 420 10,000  Level Indianapolis Center
10:34AM 40.1250 -83.9064 255° West 363 418 10,000  Level Indianapolis Center
10:34AM 40.1164 -83.9486 255° West 360 414 10,000  Level Indianapolis Center
10:35AM 40.0961 -84.0292 252° West 353 406 10,000 -240 Level Indianapolis Center
10:35AM 40.0806 -84.0586 235° Southwest 299 344 9,800 -1,620 Descending Indianapolis Center
10:36AM 40.0489 -84.1183 235° Southwest 300 345 8,300 -1,980 Descending Indianapolis Center
10:37AM 39.9967 -84.2219 237° Southwest 278 320 6,000 -1,260 Descending Indianapolis Center
10:38AM 39.9669 -84.2842 238° Southwest 274 315 5,700 -1,260 Descending Indianapolis Center
10:39AM 39.9206 -84.3389 222° Southwest 231 266 3,600 -1,560 Descending Indianapolis Center
10:40AM 39.8758 -84.3172 160° South 192 221 2,500 -1,080 Descending Indianapolis Center